Time;durP1;ratioP1;P1;durP2;ratioP2;P2;SDS_P1;SDS_P2;PMS_P1;PMS_P2;Temp;Humidity;BMP_temperature;BMP_pressure;BME280_temperature;BME280_humidity;BME280_pressure;Samples;Min_cycle;Max_cycle;Signal;HPM_P1;HPM_P2
2023/05/11 00:01:10;;;;;;;;;;;11.10;99.90;;;;;;5048161;28;19946;-92
2023/05/11 00:03:37;;;;;;;;;;;11.10;99.90;;;;;;5039846;28;19972;-92
2023/05/11 00:06:03;;;;;;;;;;;11.00;99.90;;;;;;5047355;28;19925;-92
2023/05/11 00:08:28;;;;;;;;;;;11.00;99.90;;;;;;5076536;28;20019;-91
2023/05/11 00:10:54;;;;;;;;;;;11.00;99.90;;;;;;5052632;28;19929;-91
2023/05/11 00:13:20;;;;;;;;;;;11.00;99.90;;;;;;5051244;28;19925;-91
2023/05/11 00:15:45;;;;;;;;;;;11.00;99.90;;;;;;5068927;28;20073;-92
2023/05/11 00:18:11;;;;;;;;;;;11.10;99.90;;;;;;5076397;28;20408;-91
2023/05/11 00:20:36;;;;;;;;;;;11.00;99.90;;;;;;5034045;28;19986;-91
2023/05/11 00:23:03;;;;;;;;;;;11.00;99.90;;;;;;5061713;28;19980;-91
2023/05/11 00:25:28;;;;;;;;;;;11.00;99.90;;;;;;5057445;28;19925;-90
2023/05/11 00:27:54;;;;;;;;;;;11.00;99.90;;;;;;5063586;28;20287;-90
2023/05/11 00:30:20;;;;;;;;;;;11.00;99.90;;;;;;5040782;28;19978;-89
2023/05/11 00:32:45;;;;;;;;;;;11.00;99.90;;;;;;5050097;28;19924;-91
2023/05/11 00:35:11;;;;;;;;;;;11.00;99.90;;;;;;5060475;28;19936;-93
2023/05/11 00:37:37;;;;;;;;;;;11.00;99.90;;;;;;5055715;28;19944;-91
2023/05/11 00:40:03;;;;;;;;;;;11.00;99.90;;;;;;5064461;28;19931;-90
2023/05/11 00:42:29;;;;;;;;;;;11.00;99.90;;;;;;5042655;28;19929;-92
2023/05/11 00:44:55;;;;;;;;;;;11.00;99.90;;;;;;5045186;28;19938;-92
2023/05/11 00:47:21;;;;;;;;;;;11.00;99.90;;;;;;5040713;28;19924;-92
2023/05/11 00:49:48;;;;;;;;;;;11.00;99.90;;;;;;5028413;28;20128;-91
2023/05/11 00:52:13;;;;;;;;;;;11.00;99.90;;;;;;5054865;28;19924;-93
2023/05/11 00:54:40;;;;;;;;;;;11.00;99.90;;;;;;5058077;28;19924;-92
2023/05/11 00:57:06;;;;;;;;;;;11.00;99.90;;;;;;5031923;28;19924;-92
2023/05/11 00:59:32;;;;;;;;;;;11.00;99.90;;;;;;5045010;28;19931;-91
2023/05/11 01:01:57;;;;;;;;;;;11.00;99.90;;;;;;5028862;28;19983;-91
2023/05/11 01:04:27;;;;;;;;;;;10.90;99.90;;;;;;5065196;28;20296;-92
2023/05/11 01:07:10;;;;;;;;;;;11.00;99.90;;;;;;5056456;28;19924;-92
2023/05/11 01:09:36;;;;;;;;;;;10.90;99.90;;;;;;5066853;28;19998;-92
2023/05/11 01:12:11;;;;;;;;;;;10.90;99.90;;;;;;5056850;28;19925;-91
2023/05/11 01:14:57;;;;;;;;;;;10.90;99.90;;;;;;5052004;28;19925;-91
2023/05/11 01:17:26;;;;;;;;;;;10.90;99.90;;;;;;5034894;28;19988;-92
2023/05/11 01:19:57;;;;;;;;;;;10.90;99.90;;;;;;5044142;28;19932;-92
2023/05/11 01:22:26;;;;;;;;;;;10.90;99.90;;;;;;5064701;28;20248;-92
2023/05/11 01:25:10;;;;;;;;;;;10.90;99.90;;;;;;5053374;28;20509;-92
2023/05/11 01:27:54;;;;;;;;;;;10.90;99.90;;;;;;5058491;28;19924;-91
2023/05/11 01:30:20;;;;;;;;;;;10.80;99.90;;;;;;5053108;28;19999;-90
2023/05/11 01:32:46;;;;;;;;;;;10.80;99.90;;;;;;5059951;28;19970;-92
2023/05/11 01:35:19;;;;;;;;;;;13.00;99.90;;;;;;5054110;28;19924;-93
2023/05/11 01:37:48;;;;;;;;;;;10.80;99.90;;;;;;5041281;28;19983;-91
2023/05/11 01:40:18;;;;;;;;;;;10.80;99.90;;;;;;5076465;28;19924;-91
2023/05/11 01:42:46;;;;;;;;;;;10.80;99.90;;;;;;5034332;28;19929;-92
2023/05/11 01:45:13;;;;;;;;;;;10.80;99.90;;;;;;5058095;28;19946;-91
2023/05/11 01:47:40;;;;;;;;;;;10.80;99.90;;;;;;5050660;28;19928;-91
2023/05/11 01:50:07;;;;;;;;;;;10.40;99.90;;;;;;5047756;28;19931;-92
2023/05/11 01:52:33;;;;;;;;;;;10.80;99.90;;;;;;5039731;28;19992;-92
2023/05/11 01:55:01;;;;;;;;;;;10.80;99.90;;;;;;5044073;28;19929;-90
2023/05/11 01:57:27;;;;;;;;;;;10.70;99.90;;;;;;5044720;28;19929;-91
2023/05/11 01:59:55;;;;;;;;;;;10.70;99.90;;;;;;5044389;28;19924;-91
2023/05/11 02:02:21;;;;;;;;;;;10.70;99.90;;;;;;5061021;28;19986;-91
2023/05/11 02:04:47;;;;;;;;;;;10.70;99.90;;;;;;5060061;28;20014;-91
2023/05/11 02:07:14;;;;;;;;;;;10.70;99.90;;;;;;5028652;28;19988;-91
2023/05/11 02:09:40;;;;;;;;;;;10.70;99.90;;;;;;5044482;28;19925;-92
2023/05/11 02:12:06;;;;;;;;;;;10.70;99.90;;;;;;5061326;28;19968;-92
2023/05/11 02:14:33;;;;;;;;;;;10.70;99.90;;;;;;5045029;28;19931;-90
2023/05/11 02:17:00;;;;;;;;;;;10.70;99.90;;;;;;5044461;28;19925;-91
2023/05/11 02:19:26;;;;;;;;;;;10.70;99.90;;;;;;5043494;28;19924;-91
2023/05/11 02:21:53;;;;;;;;;;;10.70;99.90;;;;;;5052027;28;19931;-91
2023/05/11 02:24:19;;;;;;;;;;;10.70;99.90;;;;;;5055989;28;19999;-90
2023/05/11 02:26:45;;;;;;;;;;;10.70;99.90;;;;;;5031746;28;19975;-91
2023/05/11 02:29:11;;;;;;;;;;;10.70;99.90;;;;;;5069160;28;19921;-91
2023/05/11 02:31:40;;;;;;;;;;;10.70;99.90;;;;;;5044655;28;19990;-91
2023/05/11 02:34:08;;;;;;;;;;;10.70;99.90;;;;;;5044130;28;19956;-91
2023/05/11 02:36:36;;;;;;;;;;;10.70;99.90;;;;;;5048065;28;19978;-90
2023/05/11 02:39:04;;;;;;;;;;;10.70;99.90;;;;;;5046282;28;19924;-91
2023/05/11 02:41:30;;;;;;;;;;;10.70;99.90;;;;;;5041031;28;20007;-91
2023/05/11 02:44:01;;;;;;;;;;;10.70;99.90;;;;;;5046846;28;19928;-90
2023/05/11 02:46:30;;;;;;;;;;;10.70;99.90;;;;;;5061262;28;19928;-91
2023/05/11 02:48:59;;;;;;;;;;;10.70;99.90;;;;;;5055019;28;19924;-91
2023/05/11 02:51:28;;;;;;;;;;;10.70;99.90;;;;;;5058537;28;19932;-90
2023/05/11 02:53:56;;;;;;;;;;;10.70;99.90;;;;;;5044889;28;19924;-91
2023/05/11 02:56:22;;;;;;;;;;;10.70;99.90;;;;;;5059448;28;19933;-91
2023/05/11 02:58:48;;;;;;;;;;;10.70;99.90;;;;;;5044171;28;20348;-92
2023/05/11 03:01:14;;;;;;;;;;;10.70;99.90;;;;;;5043668;28;19995;-91
2023/05/11 03:03:40;;;;;;;;;;;10.70;99.90;;;;;;5027498;28;19947;-92
2023/05/11 03:06:05;;;;;;;;;;;10.70;99.90;;;;;;5043967;28;20292;-91
2023/05/11 03:08:31;;;;;;;;;;;10.70;99.90;;;;;;5049332;28;19924;-92
2023/05/11 03:10:57;;;;;;;;;;;10.70;99.90;;;;;;5054157;28;19929;-92
2023/05/11 03:13:24;;;;;;;;;;;10.70;99.90;;;;;;5059399;28;19951;-91
2023/05/11 03:15:51;;;;;;;;;;;10.70;99.90;;;;;;5029403;28;19925;-93
2023/05/11 03:18:18;;;;;;;;;;;10.70;99.90;;;;;;5059768;28;20371;-91
2023/05/11 03:20:44;;;;;;;;;;;10.70;99.90;;;;;;5053669;28;19925;-93
2023/05/11 03:23:10;;;;;;;;;;;10.60;99.90;;;;;;5062422;28;19970;-92
2023/05/11 03:25:37;;;;;;;;;;;10.60;99.90;;;;;;5060985;28;20038;-92
2023/05/11 03:28:03;;;;;;;;;;;10.60;99.90;;;;;;5038742;28;20290;-91
2023/05/11 03:30:32;;;;;;;;;;;10.60;99.90;;;;;;5060376;28;21368;-91
2023/05/11 03:33:07;;;;;;;;;;;10.60;99.90;;;;;;5055396;28;19981;-91
2023/05/11 03:35:33;;;;;;;;;;;10.60;99.90;;;;;;5060325;28;20011;-92
2023/05/11 03:37:59;;;;;;;;;;;10.50;99.90;;;;;;5062216;28;19933;-91
2023/05/11 03:40:26;;;;;;;;;;;10.50;99.90;;;;;;5059912;28;19939;-91
2023/05/11 03:42:53;;;;;;;;;;;10.50;99.90;;;;;;5046877;28;19983;-92
2023/05/11 03:45:19;;;;;;;;;;;10.50;99.90;;;;;;5060754;28;19979;-93
2023/05/11 03:47:46;;;;;;;;;;;10.50;99.90;;;;;;5068848;28;19920;-93
2023/05/11 03:50:12;;;;;;;;;;;10.50;99.90;;;;;;5083682;28;19924;-91
2023/05/11 03:52:38;;;;;;;;;;;10.50;99.90;;;;;;5056845;28;19936;-91
2023/05/11 03:55:05;;;;;;;;;;;10.50;99.90;;;;;;5076775;28;19970;-91
2023/05/11 03:57:30;;;;;;;;;;;10.60;99.90;;;;;;5080021;28;19928;-91
2023/05/11 03:59:56;;;;;;;;;;;10.60;99.90;;;;;;5063259;28;19931;-91
2023/05/11 04:02:23;;;;;;;;;;;10.60;99.90;;;;;;5079996;28;19924;-91
2023/05/11 04:04:49;;;;;;;;;;;10.60;99.90;;;;;;5078618;28;19974;-93
2023/05/11 04:07:15;;;;;;;;;;;10.60;99.90;;;;;;5063649;28;19925;-91
2023/05/11 04:09:40;;;;;;;;;;;10.60;99.90;;;;;;5072064;28;19974;-91
2023/05/11 04:12:06;;;;;;;;;;;10.60;99.90;;;;;;5063694;28;19932;-92
2023/05/11 04:14:31;;;;;;;;;;;10.60;99.90;;;;;;5045966;28;19939;-90
2023/05/11 04:16:58;;;;;;;;;;;10.80;99.90;;;;;;5061739;28;19984;-91
2023/05/11 04:19:24;;;;;;;;;;;10.60;99.90;;;;;;5056596;28;19929;-90
2023/05/11 04:21:49;;;;;;;;;;;10.60;99.90;;;;;;5059239;28;20015;-91
2023/05/11 04:24:15;;;;;;;;;;;10.60;99.90;;;;;;5068327;28;19925;-91
2023/05/11 04:26:41;;;;;;;;;;;10.60;99.90;;;;;;5057777;28;20483;-91
2023/05/11 04:29:06;;;;;;;;;;;10.60;99.90;;;;;;5062826;28;19928;-91
2023/05/11 04:31:32;;;;;;;;;;;10.70;99.90;;;;;;5039525;28;20316;-91
2023/05/11 04:33:58;;;;;;;;;;;10.70;99.90;;;;;;5053262;28;19932;-90
2023/05/11 04:36:24;;;;;;;;;;;10.70;99.90;;;;;;5048116;28;19924;-90
2023/05/11 04:38:49;;;;;;;;;;;10.70;99.90;;;;;;5039263;28;19925;-91
2023/05/11 04:41:15;;;;;;;;;;;10.70;99.90;;;;;;5040052;28;20130;-91
2023/05/11 04:43:41;;;;;;;;;;;10.70;99.90;;;;;;5061538;28;19932;-92
2023/05/11 04:46:06;;;;;;;;;;;10.70;99.90;;;;;;5028817;28;19929;-92
2023/05/11 04:48:32;;;;;;;;;;;10.70;99.90;;;;;;5056294;28;19933;-92
2023/05/11 04:50:57;;;;;;;;;;;10.70;99.90;;;;;;5029405;28;19933;-92
2023/05/11 04:53:23;;;;;;;;;;;10.70;99.90;;;;;;5064696;28;19924;-92
2023/05/11 04:55:49;;;;;;;;;;;10.70;99.90;;;;;;5057892;28;20023;-91
2023/05/11 04:58:14;;;;;;;;;;;10.70;99.90;;;;;;5056735;28;19975;-93
2023/05/11 05:00:40;;;;;;;;;;;10.70;99.90;;;;;;5035115;28;19928;-92
2023/05/11 05:03:06;;;;;;;;;;;10.70;99.90;;;;;;5039724;28;19936;-93
2023/05/11 05:05:31;;;;;;;;;;;10.70;99.90;;;;;;5051156;28;20440;-92
2023/05/11 05:07:57;;;;;;;;;;;10.70;99.90;;;;;;5048337;28;19992;-92
2023/05/11 05:10:23;;;;;;;;;;;10.70;99.90;;;;;;5066801;28;19932;-91
2023/05/11 05:12:48;;;;;;;;;;;10.70;99.90;;;;;;5054716;28;19971;-92
2023/05/11 05:15:14;;;;;;;;;;;10.70;99.90;;;;;;5049878;28;19924;-91
2023/05/11 05:17:40;;;;;;;;;;;10.70;99.90;;;;;;5053586;28;20377;-91
2023/05/11 05:20:06;;;;;;;;;;;10.70;99.90;;;;;;5062431;28;19978;-91
2023/05/11 05:22:32;;;;;;;;;;;10.70;99.90;;;;;;5058648;28;19934;-92
2023/05/11 05:24:57;;;;;;;;;;;10.70;99.90;;;;;;5044756;28;20004;-91
2023/05/11 05:27:23;;;;;;;;;;;10.70;99.90;;;;;;5029373;28;19947;-91
2023/05/11 05:29:48;;;;;;;;;;;10.70;99.90;;;;;;5042970;28;19970;-91
2023/05/11 05:32:14;;;;;;;;;;;10.80;99.90;;;;;;5032292;28;19932;-91
2023/05/11 05:34:40;;;;;;;;;;;10.80;99.90;;;;;;5038650;28;19925;-91
2023/05/11 05:37:05;;;;;;;;;;;10.80;99.90;;;;;;5026617;28;19925;-92
2023/05/11 05:39:31;;;;;;;;;;;10.90;99.90;;;;;;5043933;28;19924;-91
2023/05/11 05:41:56;;;;;;;;;;;10.90;99.90;;;;;;5042808;28;19938;-91
2023/05/11 05:44:22;;;;;;;;;;;10.90;99.90;;;;;;5044179;28;19978;-91
2023/05/11 05:46:48;;;;;;;;;;;10.90;99.90;;;;;;5028782;28;19925;-91
2023/05/11 05:49:13;;;;;;;;;;;10.90;99.90;;;;;;5037845;28;19925;-91
2023/05/11 05:51:40;;;;;;;;;;;10.90;99.90;;;;;;5028732;28;19955;-92
2023/05/11 05:54:05;;;;;;;;;;;10.90;99.90;;;;;;5033967;28;19931;-89
2023/05/11 05:56:33;;;;;;;;;;;10.90;99.90;;;;;;5036079;28;20323;-90
2023/05/11 05:58:59;;;;;;;;;;;10.90;99.90;;;;;;5036874;28;19947;-90
2023/05/11 06:01:26;;;;;;;;;;;10.90;99.90;;;;;;5041723;28;19974;-90
2023/05/11 06:03:51;;;;;;;;;;;11.00;99.90;;;;;;5038777;28;20006;-90
2023/05/11 06:06:17;;;;;;;;;;;11.00;99.90;;;;;;5042432;28;19959;-89
2023/05/11 06:08:43;;;;;;;;;;;10.90;99.90;;;;;;5058145;28;19925;-90
2023/05/11 06:11:08;;;;;;;;;;;11.00;99.90;;;;;;5044991;28;19924;-91
2023/05/11 06:13:34;;;;;;;;;;;11.00;99.90;;;;;;5059912;28;20577;-92
2023/05/11 06:16:00;;;;;;;;;;;11.00;99.90;;;;;;5042001;28;20024;-91
2023/05/11 06:18:26;;;;;;;;;;;11.10;99.90;;;;;;5067031;28;19935;-92
2023/05/11 06:20:52;;;;;;;;;;;11.10;99.90;;;;;;5019957;28;19924;-92
2023/05/11 06:23:17;;;;;;;;;;;11.20;99.90;;;;;;5026716;28;19925;-93
2023/05/11 06:25:43;;;;;;;;;;;11.20;99.90;;;;;;5013362;28;20521;-92
2023/05/11 06:28:10;;;;;;;;;;;11.20;99.90;;;;;;5064656;28;20439;-92
2023/05/11 06:30:36;;;;;;;;;;;11.30;99.90;;;;;;5054901;28;20367;-91
2023/05/11 06:33:02;;;;;;;;;;;11.40;99.90;;;;;;5052991;28;19921;-92
2023/05/11 06:35:29;;;;;;;;;;;11.40;99.90;;;;;;5078207;28;19925;-91
2023/05/11 06:37:54;;;;;;;;;;;11.50;99.90;;;;;;5048728;28;19931;-91
2023/05/11 06:40:20;;;;;;;;;;;11.50;99.90;;;;;;5051906;28;20011;-91
2023/05/11 06:42:45;;;;;;;;;;;11.50;99.90;;;;;;5042962;28;19931;-91
2023/05/11 06:45:11;;;;;;;;;;;11.50;99.90;;;;;;5043382;28;19932;-91
2023/05/11 06:47:37;;;;;;;;;;;11.50;99.90;;;;;;5056165;28;20019;-92
2023/05/11 06:50:03;;;;;;;;;;;11.50;99.90;;;;;;5039904;28;19988;-92
2023/05/11 06:52:28;;;;;;;;;;;11.50;99.90;;;;;;5055326;28;19925;-92
2023/05/11 06:54:55;;;;;;;;;;;11.50;99.90;;;;;;5047784;28;19970;-91
2023/05/11 06:57:21;;;;;;;;;;;11.50;99.90;;;;;;5075401;28;19992;-92
2023/05/11 06:59:46;;;;;;;;;;;11.50;99.90;;;;;;5042727;28;19987;-91
2023/05/11 07:02:12;;;;;;;;;;;11.60;99.90;;;;;;5058843;28;19931;-90
2023/05/11 07:04:37;;;;;;;;;;;11.60;99.90;;;;;;5057708;28;19959;-90
2023/05/11 07:07:03;;;;;;;;;;;11.60;99.90;;;;;;5043390;28;19925;-89
2023/05/11 07:09:29;;;;;;;;;;;11.60;99.90;;;;;;5049231;28;19966;-91
2023/05/11 07:11:55;;;;;;;;;;;11.70;99.90;;;;;;5047627;28;19928;-90
2023/05/11 07:14:20;;;;;;;;;;;11.70;99.90;;;;;;5062753;28;19984;-90
2023/05/11 07:16:46;;;;;;;;;;;11.70;99.90;;;;;;5056343;28;19988;-89
2023/05/11 07:19:13;;;;;;;;;;;11.80;99.90;;;;;;5074638;28;19947;-91
2023/05/11 07:21:38;;;;;;;;;;;11.80;99.90;;;;;;5063586;28;20384;-90
2023/05/11 07:24:04;;;;;;;;;;;11.90;99.90;;;;;;5064308;28;19924;-91
2023/05/11 07:26:30;;;;;;;;;;;11.90;99.90;;;;;;5048679;28;19944;-90
2023/05/11 07:28:56;;;;;;;;;;;11.90;99.90;;;;;;5063930;28;19956;-91
2023/05/11 07:31:22;;;;;;;;;;;12.00;99.90;;;;;;5026866;28;19925;-91
2023/05/11 07:33:47;;;;;;;;;;;12.00;99.90;;;;;;5039994;28;19979;-91
2023/05/11 07:36:13;;;;;;;;;;;12.00;99.90;;;;;;5026454;28;19925;-91
2023/05/11 07:38:39;;;;;;;;;;;11.90;99.90;;;;;;5062352;28;19924;-89
2023/05/11 07:41:06;;;;;;;;;;;12.00;99.90;;;;;;5042351;28;19924;-90
2023/05/11 07:43:31;;;;;;;;;;;12.10;99.90;;;;;;5062012;28;19924;-90
2023/05/11 07:45:57;;;;;;;;;;;12.10;99.90;;;;;;5033528;28;19939;-90
2023/05/11 07:48:23;;;;;;;;;;;12.10;99.90;;;;;;5056795;28;19921;-89
2023/05/11 07:50:48;;;;;;;;;;;12.10;99.90;;;;;;5074402;28;19920;-91
2023/05/11 07:53:14;;;;;;;;;;;12.10;99.90;;;;;;5052601;28;19935;-89
2023/05/11 07:55:40;;;;;;;;;;;12.20;99.90;;;;;;5046545;28;19929;-92
2023/05/11 07:58:05;;;;;;;;;;;12.30;99.90;;;;;;5021210;28;20416;-92
2023/05/11 08:00:32;;;;;;;;;;;12.20;99.90;;;;;;5027327;28;19924;-93
2023/05/11 08:02:57;;;;;;;;;;;12.30;99.90;;;;;;5046744;28;19984;-93
2023/05/11 08:05:23;;;;;;;;;;;12.40;99.90;;;;;;5045039;28;19932;-94
2023/05/11 08:07:49;;;;;;;;;;;12.30;99.90;;;;;;5046730;28;19924;-93
2023/05/11 08:10:14;;;;;;;;;;;12.30;99.90;;;;;;5028508;28;19928;-93
2023/05/11 08:12:40;;;;;;;;;;;12.30;99.90;;;;;;5025744;28;20270;-94
2023/05/11 08:15:06;;;;;;;;;;;12.30;99.90;;;;;;5029932;28;19925;-93
2023/05/11 08:17:31;;;;;;;;;;;12.40;99.90;;;;;;5060336;28;19924;-92
2023/05/11 08:19:57;;;;;;;;;;;12.30;99.90;;;;;;5041969;28;20346;-93
2023/05/11 08:22:23;;;;;;;;;;;12.30;99.90;;;;;;5023554;28;20004;-92
2023/05/11 08:24:49;;;;;;;;;;;12.30;99.90;;;;;;5029566;28;19932;-92
2023/05/11 08:27:16;;;;;;;;;;;12.30;99.90;;;;;;5064844;28;20335;-94
2023/05/11 08:29:41;;;;;;;;;;;12.30;99.90;;;;;;5044235;28;19925;-92
2023/05/11 08:32:07;;;;;;;;;;;12.30;99.90;;;;;;5061567;28;19935;-92
2023/05/11 08:34:33;;;;;;;;;;;12.20;99.90;;;;;;5061253;28;19929;-92
2023/05/11 08:37:00;;;;;;;;;;;12.20;99.90;;;;;;5055724;28;19924;-92
2023/05/11 08:39:29;;;;;;;;;;;12.20;99.90;;;;;;5070126;28;19980;-91
2023/05/11 08:41:56;;;;;;;;;;;12.10;99.90;;;;;;5044563;28;19924;-94
2023/05/11 08:44:22;;;;;;;;;;;12.20;99.90;;;;;;5060850;28;19924;-93
2023/05/11 08:46:51;;;;;;;;;;;12.10;99.90;;;;;;5059010;28;19936;-94
2023/05/11 08:49:17;;;;;;;;;;;12.20;99.90;;;;;;5057187;28;19933;-92
2023/05/11 08:51:44;;;;;;;;;;;12.20;99.90;;;;;;5066231;28;20387;-91
2023/05/11 08:54:09;;;;;;;;;;;12.20;99.90;;;;;;5075292;28;19924;-93
2023/05/11 08:56:36;;;;;;;;;;;12.20;99.90;;;;;;5041229;28;19925;-92
2023/05/11 08:59:03;;;;;;;;;;;12.20;99.90;;;;;;5035696;28;20026;-92
2023/05/11 09:01:29;;;;;;;;;;;12.30;99.90;;;;;;5055210;28;19935;-93
2023/05/11 09:03:55;;;;;;;;;;;12.30;99.90;;;;;;5042226;28;20219;-91
2023/05/11 09:06:22;;;;;;;;;;;12.40;99.90;;;;;;5059917;28;19920;-92
2023/05/11 09:08:47;;;;;;;;;;;12.40;99.90;;;;;;5078850;28;19925;-93
2023/05/11 09:11:13;;;;;;;;;;;12.50;99.90;;;;;;5070347;28;19942;-91
2023/05/11 09:13:39;;;;;;;;;;;12.60;99.90;;;;;;5042632;28;20431;-91
2023/05/11 09:16:05;;;;;;;;;;;12.60;99.90;;;;;;5067277;28;19968;-93
2023/05/11 09:18:30;;;;;;;;;;;12.70;99.90;;;;;;5060487;28;19959;-91
2023/05/11 09:20:56;;;;;;;;;;;12.80;99.90;;;;;;5053518;28;19924;-91
2023/05/11 09:23:25;;;;;;;;;;;12.90;99.90;;;;;;5061152;28;19971;-91
2023/05/11 09:25:51;;;;;;;;;;;13.00;99.90;;;;;;5060836;28;20280;-92
2023/05/11 09:28:24;;;;;;;;;;;13.00;99.90;;;;;;5077147;28;20003;-92
2023/05/11 09:30:49;;;;;;;;;;;13.10;99.90;;;;;;5077119;28;19929;-92
2023/05/11 09:33:22;;;;;;;;;;;13.10;99.90;;;;;;5073776;28;19924;-92
2023/05/11 09:35:48;;;;;;;;;;;13.10;99.90;;;;;;5050615;28;19996;-91
2023/05/11 09:38:15;;;;;;;;;;;13.10;99.90;;;;;;5069565;28;19925;-92
2023/05/11 09:40:49;;;;;;;;;;;13.10;99.90;;;;;;5065746;28;19931;-93
2023/05/11 09:43:16;;;;;;;;;;;13.10;99.90;;;;;;5070933;28;19924;-92
2023/05/11 09:45:42;;;;;;;;;;;13.20;99.90;;;;;;5060456;28;19928;-91
2023/05/11 09:48:20;;;;;;;;;;;13.20;99.90;;;;;;5058714;28;20427;-92
2023/05/11 09:50:46;;;;;;;;;;;13.10;99.90;;;;;;5060829;28;20410;-92
2023/05/11 09:53:12;;;;;;;;;;;13.10;99.90;;;;;;5058662;28;19976;-94
2023/05/11 09:55:38;;;;;;;;;;;13.10;99.90;;;;;;5062836;28;20440;-92
2023/05/11 09:58:03;;;;;;;;;;;13.20;99.90;;;;;;5054601;28;19928;-93
2023/05/11 10:00:29;;;;;;;;;;;13.20;99.90;;;;;;5055861;28;19932;-92
2023/05/11 10:02:59;;;;;;;;;;;13.20;99.90;;;;;;5060340;28;20032;-92
2023/05/11 10:05:28;;;;;;;;;;;13.30;99.90;;;;;;5065205;28;19928;-92
2023/05/11 10:07:58;;;;;;;;;;;13.40;99.90;;;;;;5060744;28;19932;-91
2023/05/11 10:10:25;;;;;;;;;;;13.50;99.90;;;;;;5057603;28;19977;-93
2023/05/11 10:12:50;;;;;;;;;;;13.50;99.90;;;;;;5060336;28;19950;-93
2023/05/11 10:15:17;;;;;;;;;;;13.60;99.90;;;;;;5060948;28;19954;-93
2023/05/11 10:17:43;;;;;;;;;;;13.70;99.90;;;;;;5067792;28;19925;-92
2023/05/11 10:20:10;;;;;;;;;;;13.70;99.90;;;;;;5040400;28;19947;-90
2023/05/11 10:22:36;;;;;;;;;;;13.80;99.90;;;;;;5063490;28;20317;-91
2023/05/11 10:25:01;;;;;;;;;;;13.90;99.90;;;;;;5044895;28;19925;-92
2023/05/11 10:27:27;;;;;;;;;;;13.90;99.90;;;;;;5066889;28;20291;-92
2023/05/11 10:29:54;;;;;;;;;;;14.00;99.90;;;;;;5087419;28;19984;-91
2023/05/11 10:32:20;;;;;;;;;;;16.30;99.90;;;;;;5053527;28;19932;-91
2023/05/11 10:34:46;;;;;;;;;;;14.20;99.90;;;;;;5085327;28;19948;-93
2023/05/11 10:37:13;;;;;;;;;;;14.20;99.90;;;;;;5063298;28;19944;-92
2023/05/11 10:39:39;;;;;;;;;;;14.40;99.90;;;;;;5046728;28;20066;-93
2023/05/11 10:42:08;;;;;;;;;;;14.60;99.90;;;;;;5045209;28;19944;-93
2023/05/11 10:44:52;;;;;;;;;;;14.60;99.90;;;;;;5075359;28;19932;-93
2023/05/11 10:47:26;;;;;;;;;;;14.70;99.90;;;;;;5067992;28;19925;-93
2023/05/11 10:49:55;;;;;;;;;;;14.80;99.90;;;;;;5079548;28;19925;-92
2023/05/11 10:52:38;;;;;;;;;;;15.00;99.90;;;;;;5074462;28;19963;-92
2023/05/11 10:55:08;;;;;;;;;;;15.20;99.90;;;;;;5058021;28;19924;-92
2023/05/11 10:57:52;;;;;;;;;;;15.30;99.90;;;;;;5059361;28;19935;-92
2023/05/11 11:00:29;;;;;;;;;;;15.50;99.90;;;;;;5057396;28;20455;-92
2023/05/11 11:03:07;;;;;;;;;;;15.50;99.90;;;;;;5068541;28;20431;-92
2023/05/11 11:05:33;;;;;;;;;;;17.50;99.90;;;;;;5061122;28;20371;-93
2023/05/11 11:08:02;;;;;;;;;;;15.70;99.90;;;;;;5060787;28;19978;-92
2023/05/11 11:10:29;;;;;;;;;;;15.80;99.90;;;;;;5074650;28;20429;-91
2023/05/11 11:13:06;;;;;;;;;;;15.80;99.90;;;;;;5042705;28;19928;-91
2023/05/11 11:15:50;;;;;;;;;;;15.90;99.90;;;;;;5050695;28;19929;-92
2023/05/11 11:18:23;;;;;;;;;;;15.90;99.90;;;;;;5058768;28;19924;-90
2023/05/11 11:20:50;;;;;;;;;;;16.00;99.90;;;;;;5060003;28;20302;-91
2023/05/11 11:23:40;;;;;;;;;;;16.00;99.90;;;;;;5039154;28;20035;-92
2023/05/11 11:26:06;;;;;;;;;;;16.00;99.90;;;;;;5064342;28;19936;-92
2023/05/11 11:28:51;;;;;;;;;;;16.10;99.90;;;;;;5060256;28;19924;-94
2023/05/11 11:31:29;;;;;;;;;;;16.10;99.90;;;;;;5061950;28;20364;-93
2023/05/11 11:33:57;;;;;;;;;;;16.10;99.90;;;;;;5061376;28;19974;-93
2023/05/11 11:37:02;;;;;;;;;;;16.10;99.90;;;;;;5069125;28;20038;-93
2023/05/11 11:39:47;;;;;;;;;;;16.20;99.90;;;;;;5066272;28;19928;-93
2023/05/11 11:42:14;;;;;;;;;;;16.30;99.90;;;;;;5076487;28;20394;-94
2023/05/11 11:44:40;;;;;;;;;;;16.20;99.90;;;;;;5075699;28;20015;-93
2023/05/11 11:47:12;;;;;;;;;;;16.30;99.90;;;;;;5065908;28;19981;-91
2023/05/11 11:49:38;;;;;;;;;;;16.20;99.90;;;;;;5067676;28;19974;-90
2023/05/11 11:52:07;;;;;;;;;;;16.40;99.90;;;;;;5067110;28;19920;-91
2023/05/11 11:54:37;;;;;;;;;;;16.30;99.90;;;;;;5081589;28;19955;-90
2023/05/11 11:57:02;;;;;;;;;;;16.60;99.90;;;;;;5061695;28;19932;-91
2023/05/11 11:59:29;;;;;;;;;;;16.50;99.90;;;;;;5042010;28;19924;-91
2023/05/11 12:01:55;;;;;;;;;;;16.60;99.90;;;;;;5039110;28;20018;-91
2023/05/11 12:04:30;;;;;;;;;;;16.60;99.90;;;;;;5074644;28;19928;-93
2023/05/11 12:06:57;;;;;;;;;;;16.70;99.90;;;;;;5062899;28;20618;-90
2023/05/11 12:09:22;;;;;;;;;;;16.60;99.90;;;;;;5061480;28;20031;-89
2023/05/11 12:11:48;;;;;;;;;;;16.60;99.90;;;;;;5077108;28;20429;-90
2023/05/11 12:14:14;;;;;;;;;;;16.70;99.90;;;;;;5042753;28;19936;-90
2023/05/11 12:16:39;;;;;;;;;;;16.60;99.90;;;;;;5048359;28;20322;-89
2023/05/11 12:19:05;;;;;;;;;;;18.10;99.90;;;;;;5066284;28;19943;-88
2023/05/11 12:21:31;;;;;;;;;;;16.80;99.90;;;;;;5065932;28;19924;-90
2023/05/11 12:23:56;;;;;;;;;;;16.30;99.90;;;;;;5044720;28;19970;-91
2023/05/11 12:26:24;;;;;;;;;;;16.80;99.90;;;;;;5054764;28;19931;-90
2023/05/11 12:28:50;;;;;;;;;;;16.90;99.90;;;;;;5062008;28;20408;-90
2023/05/11 12:31:16;;;;;;;;;;;16.80;99.90;;;;;;5067061;28;19947;-90
2023/05/11 12:33:46;;;;;;;;;;;16.90;99.90;;;;;;5079537;28;19972;-89
2023/05/11 12:36:13;;;;;;;;;;;16.90;99.90;;;;;;5056968;28;19924;-90
2023/05/11 12:38:45;;;;;;;;;;;16.90;99.90;;;;;;5047012;28;19924;-91
2023/05/11 12:41:17;;;;;;;;;;;17.00;99.90;;;;;;5055129;28;19924;-92
2023/05/11 12:43:43;;;;;;;;;;;17.10;99.90;;;;;;5061763;28;19964;-93
2023/05/11 12:46:09;;;;;;;;;;;17.10;99.90;;;;;;5047255;28;19936;-94
2023/05/11 12:48:34;;;;;;;;;;;17.00;99.90;;;;;;5041439;28;19947;-94
2023/05/11 12:51:00;;;;;;;;;;;17.00;99.90;;;;;;5062913;28;19924;-92
2023/05/11 12:53:26;;;;;;;;;;;17.00;99.90;;;;;;5046983;28;19924;-93
2023/05/11 12:55:58;;;;;;;;;;;17.00;99.90;;;;;;5046314;28;20399;-93
2023/05/11 12:58:23;;;;;;;;;;;17.00;99.90;;;;;;5062830;28;19946;-92
2023/05/11 13:00:56;;;;;;;;;;;16.90;99.90;;;;;;5042605;28;19988;-93
2023/05/11 13:03:23;;;;;;;;;;;16.90;99.90;;;;;;5035484;28;20305;-93
2023/05/11 13:05:48;;;;;;;;;;;16.90;99.90;;;;;;5037568;28;19939;-91
2023/05/11 13:08:17;;;;;;;;;;;17.00;99.90;;;;;;5072155;28;19951;-92
2023/05/11 13:10:42;;;;;;;;;;;16.90;99.90;;;;;;5071029;28;19932;-92
2023/05/11 13:13:08;;;;;;;;;;;16.90;99.90;;;;;;5056555;28;19980;-93
2023/05/11 13:15:48;;;;;;;;;;;16.90;99.90;;;;;;5042101;28;19932;-93
2023/05/11 13:18:15;;;;;;;;;;;16.90;99.90;;;;;;5057408;28;19970;-93
2023/05/11 13:20:42;;;;;;;;;;;17.00;99.90;;;;;;5039822;28;19925;-93
2023/05/11 13:23:08;;;;;;;;;;;17.00;99.90;;;;;;5038994;28;20285;-91
2023/05/11 13:25:50;;;;;;;;;;;17.10;99.90;;;;;;5063051;28;20002;-91
2023/05/11 13:28:17;;;;;;;;;;;17.20;99.90;;;;;;5045430;28;19925;-91
2023/05/11 13:30:43;;;;;;;;;;;17.20;99.90;;;;;;5039844;28;19928;-93
2023/05/11 13:33:09;;;;;;;;;;;17.20;99.90;;;;;;5055809;28;19947;-93
2023/05/11 13:35:38;;;;;;;;;;;17.20;99.90;;;;;;5023427;28;19925;-92
2023/05/11 13:38:04;;;;;;;;;;;17.00;99.90;;;;;;5042951;28;20165;-92
2023/05/11 13:40:30;;;;;;;;;;;17.10;99.90;;;;;;5060214;28;20206;-91
2023/05/11 13:42:55;;;;;;;;;;;17.10;99.90;;;;;;5028664;28;19924;-92
2023/05/11 13:45:21;;;;;;;;;;;17.10;99.90;;;;;;5036653;28;19978;-91
2023/05/11 13:47:47;;;;;;;;;;;17.10;99.90;;;;;;5043394;28;20019;-92
2023/05/11 13:50:12;;;;;;;;;;;17.00;99.90;;;;;;5044670;28;19959;-94
2023/05/11 13:52:39;;;;;;;;;;;16.90;99.90;;;;;;5059520;28;19932;-91
2023/05/11 13:55:05;;;;;;;;;;;16.90;99.90;;;;;;5028345;28;20027;-91
2023/05/11 13:57:31;;;;;;;;;;;16.80;99.90;;;;;;5042840;28;19935;-92
2023/05/11 13:59:56;;;;;;;;;;;16.60;99.90;;;;;;5042863;28;19976;-92
2023/05/11 14:02:22;;;;;;;;;;;16.70;99.90;;;;;;5027060;28;19954;-92
2023/05/11 14:04:48;;;;;;;;;;;16.70;99.90;;;;;;5024746;28;19924;-93
2023/05/11 14:07:14;;;;;;;;;;;16.70;99.90;;;;;;5034597;28;19955;-93
2023/05/11 14:09:42;;;;;;;;;;;16.70;99.90;;;;;;5026280;28;19924;-92
2023/05/11 14:12:08;;;;;;;;;;;16.60;99.90;;;;;;5044550;28;19947;-91
2023/05/11 14:14:34;;;;;;;;;;;16.50;99.90;;;;;;5044651;28;19924;-92
2023/05/11 14:16:59;;;;;;;;;;;16.50;99.90;;;;;;5036540;28;19925;-92